Time;durP1;ratioP1;P1;durP2;ratioP2;P2;SDS_P1;SDS_P2;PMS_P1;PMS_P2;Temp;Humidity;BMP_temperature;BMP_pressure;BME280_temperature;BME280_humidity;BME280_pressure;Samples;Min_cycle;Max_cycle;Signal;HPM_P1;HPM_P2
2022/02/07 00:00:25;;;;;;;;;;;;;;;10.49;59.76;98540.59;4305888;33;20000;-82
2022/02/07 00:05:27;;;;;;;;;;;;;;;10.52;59.77;98534.38;4306252;33;19984;-83
2022/02/07 00:07:53;;;;;;;;;;;;;;;10.59;59.77;98539.19;4305658;33;20297;-83
2022/02/07 00:10:18;;;;;;;;;;;;;;;10.59;59.77;98535.75;4305365;33;20011;-83
2022/02/07 00:12:46;;;;;;;;;;;;;;;10.37;59.76;98533.41;4305329;33;20287;-83
2022/02/07 00:15:12;;;;;;;;;;;;;;;10.49;59.77;98539.75;4305134;33;20038;-83
2022/02/07 00:17:37;;;;;;;;;;;;;;;10.40;59.76;98551.44;4318675;33;19987;-83
2022/02/07 00:20:08;;;;;;;;;;;;;;;10.43;59.76;98552.16;4318527;33;20004;-83
2022/02/07 00:22:33;;;;;;;;;;;;;;;10.43;59.76;98549.56;4305780;33;20007;-83
2022/02/07 00:24:58;;;;;;;;;;;;;;;10.42;59.77;98553.06;4304702;33;19980;-82
2022/02/07 00:27:23;;;;;;;;;;;;;;;10.42;59.77;98547.03;4317961;33;27832;-83
2022/02/07 00:29:48;;;;;;;;;;;;;;;10.36;59.76;98545.56;4304884;33;20987;-82
2022/02/07 00:32:14;;;;;;;;;;;;;;;10.40;59.76;98531.47;4317905;33;30048;-83
2022/02/07 00:34:39;;;;;;;;;;;;;;;10.28;59.75;98521.72;4292617;33;20008;-83
2022/02/07 00:37:04;;;;;;;;;;;;;;;10.28;59.75;98515.66;4317972;33;26750;-83
2022/02/07 00:39:37;;;;;;;;;;;;;;;10.29;59.75;98509.53;4318453;33;19993;-83
2022/02/07 00:42:06;;;;;;;;;;;;;;;10.28;59.75;98497.47;4305022;33;20388;-83
2022/02/07 00:44:32;;;;;;;;;;;;;;;10.44;59.77;98494.00;4318380;33;20048;-84
2022/02/07 00:46:58;;;;;;;;;;;;;;;10.38;59.76;98498.66;4317346;33;20934;-84
2022/02/07 00:49:26;;;;;;;;;;;;;;;10.39;59.76;98489.94;4292852;33;20035;-84
2022/02/07 00:51:52;;;;;;;;;;;;;;;10.35;59.76;98483.22;4305049;33;20797;-84
2022/02/07 00:54:17;;;;;;;;;;;;;;;10.31;59.76;98479.94;4304753;33;19998;-84
2022/02/07 00:56:42;;;;;;;;;;;;;;;10.47;59.76;98473.94;4318315;33;20504;-84
2022/02/07 00:59:08;;;;;;;;;;;;;;;10.40;59.77;98453.44;4318301;33;20015;-85
2022/02/07 01:01:33;;;;;;;;;;;;;;;10.35;59.76;98437.22;4318228;33;19999;-84
2022/02/07 01:03:58;;;;;;;;;;;;;;;10.42;59.76;98441.22;4318255;33;19988;-84
2022/02/07 01:06:23;;;;;;;;;;;;;;;10.52;59.76;98438.97;4317842;33;21797;-84
2022/02/07 01:08:53;;;;;;;;;;;;;;;10.37;59.76;98450.16;4318287;33;19999;-84
2022/02/07 01:11:49;;;;;;;;;;;;;;;10.44;59.76;98433.34;4318307;33;19992;-85
2022/02/07 01:14:14;;;;;;;;;;;;;;;10.42;59.77;98437.78;4317476;33;19980;-84
2022/02/07 01:22:16;;;;;;;;;;;;;;;10.29;59.75;98415.91;4304906;33;20022;-84
2022/02/07 01:51:36;;;;;;;;;;;;;;;9.72;59.73;98340.81;4305302;33;19992;-83
2022/02/07 01:56:45;;;;;;;;;;;;;;;9.74;59.73;98325.16;4306689;33;20024;-82
2022/02/07 01:59:11;;;;;;;;;;;;;;;9.64;59.71;98326.53;4304379;33;20059;-82
2022/02/07 02:01:37;;;;;;;;;;;;;;;9.65;59.72;98326.44;4304000;33;23031;-83
2022/02/07 02:04:06;;;;;;;;;;;;;;;9.71;59.72;98320.97;4304634;33;19996;-84
2022/02/07 02:06:31;;;;;;;;;;;;;;;9.74;59.73;98315.59;4317778;33;19996;-84
2022/02/07 02:08:56;;;;;;;;;;;;;;;9.73;59.73;98313.94;4317583;33;20239;-84
2022/02/07 02:11:21;;;;;;;;;;;;;;;9.72;59.73;98312.25;4317878;33;20016;-83
2022/02/07 02:16:23;;;;;;;;;;;;;;;9.71;59.72;98307.13;4317834;33;19999;-83
2022/02/07 02:47:49;;;;;;;;;;;;;;;9.71;59.72;98262.97;4310977;33;20385;-86
2022/02/07 02:50:29;;;;;;;;;;;;;;;9.68;59.72;98260.50;4320842;33;19980;-85
2022/02/07 02:52:54;;;;;;;;;;;;;;;9.69;59.72;98256.97;4322296;33;20350;-85
2022/02/07 02:55:19;;;;;;;;;;;;;;;9.63;59.71;98254.69;4308797;33;20006;-85
2022/02/07 02:57:45;;;;;;;;;;;;;;;9.67;59.72;98240.63;4322145;33;19988;-85
2022/02/07 03:00:10;;;;;;;;;;;;;;;9.76;59.72;98235.81;4307880;33;31193;-85
2022/02/07 03:02:35;;;;;;;;;;;;;;;9.81;59.73;98232.97;4308413;33;20114;-85
2022/02/07 03:05:01;;;;;;;;;;;;;;;9.80;59.73;98231.28;4320298;33;20018;-85
2022/02/07 03:07:26;;;;;;;;;;;;;;;9.84;59.73;98218.03;4321546;33;20528;-85
2022/02/07 03:09:53;;;;;;;;;;;;;;;9.86;59.73;98210.16;4321832;33;20031;-86
2022/02/07 03:12:19;;;;;;;;;;;;;;;9.81;59.73;98214.78;4322083;33;20274;-85
2022/02/07 03:14:46;;;;;;;;;;;;;;;9.89;59.73;98203.94;4321818;33;20028;-86
2022/02/07 03:17:12;;;;;;;;;;;;;;;9.90;59.73;98206.47;4321874;33;20000;-86
2022/02/07 03:19:37;;;;;;;;;;;;;;;9.79;59.73;98209.66;4308367;33;19988;-85
2022/02/07 03:22:02;;;;;;;;;;;;;;;9.84;59.73;98207.66;4321716;33;20008;-84
2022/02/07 03:24:28;;;;;;;;;;;;;;;9.87;59.74;98201.44;4321647;33;20267;-85
2022/02/07 03:26:53;;;;;;;;;;;;;;;9.90;59.73;98177.03;4308312;33;20282;-84
2022/02/07 03:29:18;;;;;;;;;;;;;;;9.93;59.73;98162.13;4321442;33;20204;-83
2022/02/07 03:31:43;;;;;;;;;;;;;;;9.88;59.73;98179.72;4321780;33;19996;-84
2022/02/07 03:34:09;;;;;;;;;;;;;;;9.86;59.73;98197.16;4308223;33;20036;-84
2022/02/07 03:36:34;;;;;;;;;;;;;;;9.82;59.73;98198.25;4308229;33;20051;-84
2022/02/07 03:38:59;;;;;;;;;;;;;;;9.83;59.73;98205.13;4321630;33;20044;-84
2022/02/07 03:41:24;;;;;;;;;;;;;;;9.83;59.73;98202.53;4321590;33;20583;-84
2022/02/07 03:43:50;;;;;;;;;;;;;;;9.90;59.73;98200.44;4308019;33;20051;-84
2022/02/07 03:46:15;;;;;;;;;;;;;;;9.88;59.73;98190.12;4321294;33;20315;-83
2022/02/07 03:48:40;;;;;;;;;;;;;;;9.77;59.72;98182.91;4320994;33;22819;-83
2022/02/07 03:51:06;;;;;;;;;;;;;;;9.79;59.73;98178.47;4317854;33;23052;-85
2022/02/07 03:53:31;;;;;;;;;;;;;;;9.76;59.72;98183.84;4318469;33;20850;-83
2022/02/07 03:55:56;;;;;;;;;;;;;;;9.72;59.73;98187.53;4318033;33;30145;-84
2022/02/07 03:58:21;;;;;;;;;;;;;;;9.69;59.72;98197.22;4318206;33;24799;-84
2022/02/07 04:00:48;;;;;;;;;;;;;;;9.78;59.72;98171.59;4305318;33;20316;-84
2022/02/07 04:03:14;;;;;;;;;;;;;;;9.96;59.74;98167.16;4318595;33;20036;-84
2022/02/07 04:08:12;;;;;;;;;;;;;;;9.98;59.74;98187.87;4305850;33;19976;-84
2022/02/07 04:11:03;;;;;;;;;;;;;;;9.84;59.73;98192.06;4318612;33;19988;-84
2022/02/07 04:13:46;;;;;;;;;;;;;;;10.01;59.73;98195.50;4318407;33;20047;-84
2022/02/07 04:16:10;;;;;;;;;;;;;;;9.79;59.73;98195.81;4307690;33;20037;-83
2022/02/07 04:18:50;;;;;;;;;;;;;;;9.77;59.72;98192.47;4318230;33;19992;-84
2022/02/07 04:21:15;;;;;;;;;;;;;;;9.64;59.71;98194.03;4318685;33;20014;-84
2022/02/07 04:23:41;;;;;;;;;;;;;;;9.71;59.72;98203.19;4318547;33;20326;-85
2022/02/07 04:26:06;;;;;;;;;;;;;;;9.71;59.72;98200.59;4304629;33;30111;-84
2022/02/07 04:28:31;;;;;;;;;;;;;;;9.56;59.71;98199.66;4318285;33;21190;-85
2022/02/07 04:30:56;;;;;;;;;;;;;;;9.65;59.72;98198.31;4304496;33;27629;-84
2022/02/07 04:33:21;;;;;;;;;;;;;;;9.47;59.71;98203.56;4317857;33;27976;-85
2022/02/07 04:35:47;;;;;;;;;;;;;;;9.61;59.72;98196.78;4317915;33;24065;-85
2022/02/07 04:38:12;;;;;;;;;;;;;;;9.59;59.72;98204.66;4317716;33;32580;-84
2022/02/07 04:40:37;;;;;;;;;;;;;;;9.46;59.71;98203.63;4305025;33;20003;-84
2022/02/07 04:43:03;;;;;;;;;;;;;;;9.40;59.70;98207.38;4318292;33;19999;-84
2022/02/07 04:45:39;;;;;;;;;;;;;;;9.42;59.71;98213.34;4304922;33;19981;-84
2022/02/07 04:48:29;;;;;;;;;;;;;;;9.25;59.69;98220.34;4306099;33;19976;-84
2022/02/07 04:53:50;;;;;;;;;;;;;;;9.38;59.70;98219.63;4318336;33;19996;-85
2022/02/07 04:59:01;;;;;;;;;;;;;;;9.52;59.71;98217.16;4318404;33;20364;-84
2022/02/07 05:01:42;;;;;;;;;;;;;;;9.50;59.71;98218.16;4315709;33;20333;-85
2022/02/07 05:04:19;;;;;;;;;;;;;;;9.57;59.71;98221.25;4306649;33;20366;-85
2022/02/07 05:14:59;;;;;;;;;;;;;;;9.35;59.71;98217.19;4318214;33;20048;-83
2022/02/07 05:17:25;;;;;;;;;;;;;;;9.11;59.68;98227.06;4318200;33;20390;-83
2022/02/07 05:19:50;;;;;;;;;;;;;;;9.09;59.69;98222.84;4318278;33;20344;-83
2022/02/07 05:22:16;;;;;;;;;;;;;;;9.15;59.69;98225.97;4317461;33;26786;-83
2022/02/07 05:24:41;;;;;;;;;;;;;;;9.08;59.69;98244.53;4317517;33;27328;-86
2022/02/07 05:27:06;;;;;;;;;;;;;;;9.03;59.68;98239.59;4304572;33;20026;-84
2022/02/07 05:29:32;;;;;;;;;;;;;;;8.91;59.68;98245.38;4304232;33;20441;-83
2022/02/07 05:31:57;;;;;;;;;;;;;;;8.94;59.68;98250.41;4304449;33;20030;-85
2022/02/07 05:34:22;;;;;;;;;;;;;;;9.01;59.68;98248.37;4304694;33;20015;-85
2022/02/07 05:36:49;;;;;;;;;;;;;;;9.03;59.68;98242.19;4317777;33;25383;-85
2022/02/07 05:39:18;;;;;;;;;;;;;;;9.02;59.68;98250.03;4305202;33;20370;-83
2022/02/07 05:41:44;;;;;;;;;;;;;;;9.00;59.68;98246.69;4304796;33;20390;-84
2022/02/07 05:44:09;;;;;;;;;;;;;;;8.98;59.69;98253.69;4318182;33;19984;-84
2022/02/07 05:46:34;;;;;;;;;;;;;;;8.82;59.68;98254.44;4304867;33;19989;-84
2022/02/07 05:48:59;;;;;;;;;;;;;;;8.83;59.68;98256.13;4317821;33;29297;-84
2022/02/07 05:51:25;;;;;;;;;;;;;;;8.91;59.68;98263.53;4317782;33;20004;-84
2022/02/07 05:53:50;;;;;;;;;;;;;;;8.99;59.68;98260.56;4317706;33;23276;-83
2022/02/07 05:56:15;;;;;;;;;;;;;;;9.10;59.69;98255.69;4316483;33;20942;-84
2022/02/07 05:58:40;;;;;;;;;;;;;;;9.03;59.68;98268.13;4318252;33;19992;-84
2022/02/07 06:01:05;;;;;;;;;;;;;;;8.99;59.68;98266.59;4304624;33;20004;-83
2022/02/07 06:03:31;;;;;;;;;;;;;;;8.98;59.69;98257.13;4317487;33;21901;-83
2022/02/07 06:05:56;;;;;;;;;;;;;;;8.96;59.68;98265.88;4304159;33;20000;-84
2022/02/07 06:08:22;;;;;;;;;;;;;;;8.93;59.68;98256.50;4304126;33;20429;-85
2022/02/07 06:10:48;;;;;;;;;;;;;;;9.01;59.68;98254.41;4292188;33;20007;-84
2022/02/07 06:13:13;;;;;;;;;;;;;;;8.87;59.67;98257.66;4317045;33;20349;-84
2022/02/07 06:15:39;;;;;;;;;;;;;;;8.77;59.67;98258.19;4317392;33;20036;-84
2022/02/07 06:18:04;;;;;;;;;;;;;;;8.77;59.67;98258.19;4317526;33;19982;-84
2022/02/07 06:20:30;;;;;;;;;;;;;;;8.56;59.66;98255.72;4317170;33;20213;-83
2022/02/07 06:22:55;;;;;;;;;;;;;;;8.72;59.67;98262.72;4317527;33;19984;-85
2022/02/07 06:25:21;;;;;;;;;;;;;;;8.73;59.66;98275.62;4291437;33;23584;-84
2022/02/07 06:27:46;;;;;;;;;;;;;;;8.74;59.66;98281.66;4317051;33;19961;-84
2022/02/07 06:30:11;;;;;;;;;;;;;;;8.74;59.67;98290.28;4304129;33;20051;-84
2022/02/07 06:32:39;;;;;;;;;;;;;;;8.68;59.67;98293.19;4317526;33;19976;-84
2022/02/07 06:35:05;;;;;;;;;;;;;;;8.67;59.66;98285.47;4291740;33;19984;-83
2022/02/07 06:37:30;;;;;;;;;;;;;;;8.70;59.67;98280.97;4317331;33;20314;-83
2022/02/07 06:39:55;;;;;;;;;;;;;;;8.65;59.66;98279.50;4316874;33;22929;-84
2022/02/07 06:42:21;;;;;;;;;;;;;;;8.68;59.66;98269.84;4303468;33;22936;-84
2022/02/07 06:44:46;;;;;;;;;;;;;;;8.45;59.66;98264.88;4317076;33;19972;-84
2022/02/07 06:47:11;;;;;;;;;;;;;;;8.54;59.66;98282.62;4303770;33;20133;-84
2022/02/07 06:49:37;;;;;;;;;;;;;;;8.34;59.65;98286.16;4316756;33;23543;-85
2022/02/07 06:52:02;;;;;;;;;;;;;;;8.50;59.65;98273.28;4317213;33;20836;-85
2022/02/07 06:54:27;;;;;;;;;;;;;;;8.39;59.65;98296.31;4315587;33;19999;-84
2022/02/07 06:56:53;;;;;;;;;;;;;;;8.25;59.64;98294.28;4302891;33;27733;-85
2022/02/07 06:59:19;;;;;;;;;;;;;;;8.21;59.64;98303.97;4316961;33;19991;-84
2022/02/07 07:01:45;;;;;;;;;;;;;;;8.21;59.63;98313.50;4316832;33;20044;-83
2022/02/07 07:04:10;;;;;;;;;;;;;;;8.27;59.64;98314.06;4303417;33;19984;-84
2022/02/07 07:06:36;;;;;;;;;;;;;;;8.43;59.65;98321.16;4316457;33;19996;-84
2022/02/07 07:09:01;;;;;;;;;;;;;;;8.34;59.64;98330.22;4316844;33;19996;-84
2022/02/07 07:11:28;;;;;;;;;;;;;;;8.20;59.63;98341.16;4301632;33;22710;-86
2022/02/07 07:14:02;;;;;;;;;;;;;;;8.28;59.64;98339.09;4302989;33;19980;-85
2022/02/07 07:18:59;;;;;;;;;;;;;;;8.14;59.63;98350.97;4304175;33;20015;-86
2022/02/07 07:21:26;;;;;;;;;;;;;;;8.16;59.64;98354.34;4316939;33;20048;-85
2022/02/07 07:23:51;;;;;;;;;;;;;;;8.12;59.63;98365.75;4316478;33;19980;-85
2022/02/07 07:26:16;;;;;;;;;;;;;;;8.05;59.62;98370.37;4316642;33;20915;-85
2022/02/07 07:28:42;;;;;;;;;;;;;;;8.12;59.63;98356.22;4305137;33;20773;-85
2022/02/07 07:31:10;;;;;;;;;;;;;;;8.08;59.63;98370.25;4305322;33;20008;-84
2022/02/07 07:33:37;;;;;;;;;;;;;;;8.13;59.63;98372.63;4305164;33;20342;-85
2022/02/07 07:36:02;;;;;;;;;;;;;;;8.07;59.63;98360.78;4305455;33;20242;-86
2022/02/07 07:38:27;;;;;;;;;;;;;;;7.93;59.63;98381.25;4305130;33;20011;-85
2022/02/07 07:40:53;;;;;;;;;;;;;;;7.87;59.62;98397.91;4304854;33;22634;-86
2022/02/07 07:43:18;;;;;;;;;;;;;;;7.97;59.62;98369.84;4305031;33;19976;-86
2022/02/07 07:45:49;;;;;;;;;;;;;;;7.92;59.62;98395.97;4305071;33;20077;-84
2022/02/07 07:48:19;;;;;;;;;;;;;;;7.91;59.61;98403.81;4318497;33;20044;-84
2022/02/07 07:50:53;;;;;;;;;;;;;;;7.86;59.62;98403.16;4318607;33;20004;-84
2022/02/07 08:03:51;;;;;;;;;;;;;;;6.56;59.54;98451.44;4306732;33;20357;-88
2022/02/07 08:06:21;;;;;;;;;;;;;;;6.43;59.54;98464.81;4305864;33;19976;-86
2022/02/07 08:11:15;;;;;;;;;;;;;;;6.04;59.51;98486.88;4305013;33;20282;-86
2022/02/07 08:13:42;;;;;;;;;;;;;;;6.06;59.52;98503.16;4305201;33;19998;-86
2022/02/07 08:16:07;;;;;;;;;;;;;;;5.90;59.50;98509.72;4305324;33;19968;-87
2022/02/07 08:18:32;;;;;;;;;;;;;;;5.58;59.49;98514.16;4304858;33;20338;-86
2022/02/07 08:20:58;;;;;;;;;;;;;;;5.44;59.48;98524.06;4318432;33;19995;-83
2022/02/07 08:23:23;;;;;;;;;;;;;;;5.55;59.49;98520.25;4296380;33;20003;-84
2022/02/07 08:25:49;;;;;;;;;;;;;;;5.73;59.50;98513.69;4290406;33;20044;-84
2022/02/07 08:28:14;;;;;;;;;;;;;;;5.71;59.50;98514.63;4290464;33;19985;-85
2022/02/07 08:30:39;;;;;;;;;;;;;;;5.64;59.49;98507.94;4303458;33;19995;-84
2022/02/07 08:33:04;;;;;;;;;;;;;;;5.64;59.50;98503.62;4290112;33;20011;-84
2022/02/07 08:35:30;;;;;;;;;;;;;;;5.73;59.50;98518.00;4303719;33;19988;-86
2022/02/07 08:37:56;;;;;;;;;;;;;;;5.91;59.52;98508.81;4290446;33;19992;-86
2022/02/07 08:40:23;;;;;;;;;;;;;;;5.92;59.51;98513.13;4290267;33;20052;-86
2022/02/07 08:42:48;;;;;;;;;;;;;;;5.95;59.51;98513.00;4290131;33;20338;-86
2022/02/07 08:45:14;;;;;;;;;;;;;;;6.01;59.52;98503.31;4288974;33;29050;-85
2022/02/07 08:47:41;;;;;;;;;;;;;;;6.23;59.53;98508.59;4302021;33;20414;-86
2022/02/07 08:50:07;;;;;;;;;;;;;;;6.39;59.53;98525.28;4303515;33;19993;-86
2022/02/07 08:52:32;;;;;;;;;;;;;;;6.33;59.53;98522.87;4303326;33;20011;-86
2022/02/07 08:54:58;;;;;;;;;;;;;;;6.52;59.55;98530.00;4303764;33;19995;-87
2022/02/07 08:57:32;;;;;;;;;;;;;;;6.70;59.55;98537.13;4290179;33;19989;-85
2022/02/07 09:00:08;;;;;;;;;;;;;;;6.81;59.56;98534.97;4290935;33;20038;-85
2022/02/07 09:07:44;;;;;;;;;;;;;;;6.52;59.54;98581.72;4291327;33;20006;-86
2022/02/07 09:10:09;;;;;;;;;;;;;;;6.49;59.53;98572.31;4310658;33;19960;-86
2022/02/07 09:12:34;;;;;;;;;;;;;;;6.53;59.54;98604.91;4317131;33;28895;-87
2022/02/07 09:15:16;;;;;;;;;;;;;;;6.53;59.54;98609.25;4291518;33;33197;-86
2022/02/07 09:17:42;;;;;;;;;;;;;;;6.40;59.53;98624.34;4318240;33;20019;-86
2022/02/07 09:20:07;;;;;;;;;;;;;;;6.25;59.52;98620.50;4303821;33;27217;-86
2022/02/07 09:22:32;;;;;;;;;;;;;;;6.33;59.53;98633.16;4318068;33;20008;-86
2022/02/07 09:24:58;;;;;;;;;;;;;;;6.20;59.53;98632.75;4304871;33;20270;-87
2022/02/07 09:27:23;;;;;;;;;;;;;;;6.12;59.51;98656.22;4292376;33;23366;-87
2022/02/07 09:29:48;;;;;;;;;;;;;;;5.96;59.51;98652.44;4304005;33;20002;-88
2022/02/07 09:32:14;;;;;;;;;;;;;;;5.93;59.51;98644.78;4293163;33;20307;-86
2022/02/07 09:34:40;;;;;;;;;;;;;;;5.68;59.50;98662.72;4318338;33;19980;-86
2022/02/07 09:37:05;;;;;;;;;;;;;;;5.63;59.49;98661.16;4317205;33;20011;-86
2022/02/07 09:39:30;;;;;;;;;;;;;;;5.50;59.48;98665.84;4304702;33;20000;-86
2022/02/07 09:42:03;;;;;;;;;;;;;;;5.53;59.49;98678.66;4318217;33;20020;-85
2022/02/07 09:44:39;;;;;;;;;;;;;;;5.58;59.49;98686.25;4292840;33;19981;-92
2022/02/07 09:47:04;;;;;;;;;;;;;;;5.70;59.50;98691.09;4294014;33;20397;-85
2022/02/07 09:49:29;;;;;;;;;;;;;;;5.66;59.49;98705.78;4304588;33;19988;-85
2022/02/07 09:51:55;;;;;;;;;;;;;;;5.77;59.51;98685.69;4304661;33;20048;-85
2022/02/07 09:54:21;;;;;;;;;;;;;;;5.74;59.49;98670.28;4317838;33;19983;-87
2022/02/07 09:56:47;;;;;;;;;;;;;;;5.65;59.49;98683.44;4304593;33;20055;-86
2022/02/07 09:59:13;;;;;;;;;;;;;;;5.66;59.49;98685.13;4317110;33;20040;-88
2022/02/07 10:01:43;;;;;;;;;;;;;;;5.86;59.51;98694.88;4304842;33;19991;-87
2022/02/07 10:04:15;;;;;;;;;;;;;;;5.91;59.51;98687.03;4304567;33;19990;-89
2022/02/07 10:09:24;;;;;;;;;;;;;;;6.37;59.54;98705.37;4304320;33;20059;-86
2022/02/07 10:12:23;;;;;;;;;;;;;;;6.59;59.55;98715.03;4305680;33;19994;-86
2022/02/07 10:15:03;;;;;;;;;;;;;;;6.52;59.54;98742.00;4317555;33;19988;-86
2022/02/07 10:34:34;;;;;;;;;;;;;;;6.99;59.57;98754.22;4317706;33;20404;-84
2022/02/07 10:47:49;;;;;;;;;;;;;;;7.42;59.59;98783.81;4304096;33;20464;-84
2022/02/07 10:49:58;;;;;;;;;;;;;;;7.55;59.60;98746.22;4314914;33;19996;-85
2022/02/07 10:52:23;;;;;;;;;;;;;;;7.51;59.60;98760.19;4317337;33;20002;-87
2022/02/07 10:54:51;;;;;;;;;;;;;;;7.38;59.58;98733.91;4317486;33;20043;-87
2022/02/07 10:57:17;;;;;;;;;;;;;;;7.57;59.60;98736.69;4303880;33;19976;-87
2022/02/07 10:59:42;;;;;;;;;;;;;;;7.84;59.62;98727.06;4304836;33;20059;-87
2022/02/07 11:04:47;;;;;;;;;;;;;;;7.75;59.61;98745.50;4305758;33;20028;-85
2022/02/07 11:07:13;;;;;;;;;;;;;;;7.71;59.61;98743.94;4306854;33;20323;-86
2022/02/07 11:21:15;;;;;;;;;;;;;;;7.58;59.60;98763.44;4305501;33;20014;-85
2022/02/07 11:28:25;;;;;;;;;;;;;;;7.31;59.58;98785.91;4305501;33;20014;-88
2022/02/07 11:30:50;;;;;;;;;;;;;;;7.15;59.58;98824.44;4305449;33;20001;-86
2022/02/07 11:33:34;;;;;;;;;;;;;;;7.12;59.58;98823.69;4319008;33;20022;-87
2022/02/07 11:36:00;;;;;;;;;;;;;;;7.02;59.56;98810.19;4305455;33;19984;-87
2022/02/07 11:38:25;;;;;;;;;;;;;;;7.14;59.57;98808.97;4318984;33;20010;-86
2022/02/07 11:40:56;;;;;;;;;;;;;;;7.01;59.56;98817.13;4305566;33;19976;-88
2022/02/07 11:43:22;;;;;;;;;;;;;;;7.25;59.59;98801.66;4319006;33;20036;-89
2022/02/07 11:45:48;;;;;;;;;;;;;;;7.14;59.57;98821.91;4306085;33;20313;-87
2022/02/07 11:48:13;;;;;;;;;;;;;;;7.20;59.58;98799.25;4318660;33;19988;-87
2022/02/07 11:50:41;;;;;;;;;;;;;;;7.17;59.58;98834.75;4318665;33;19972;-87
2022/02/07 11:53:07;;;;;;;;;;;;;;;7.35;59.59;98842.75;4318691;33;19996;-86
2022/02/07 11:55:37;;;;;;;;;;;;;;;7.48;59.60;98832.81;4305332;33;20360;-87
2022/02/07 11:58:10;;;;;;;;;;;;;;;7.63;59.60;98834.03;4305227;33;19976;-86
2022/02/07 12:00:36;;;;;;;;;;;;;;;7.51;59.60;98843.06;4305996;33;20069;-88
2022/02/07 12:03:05;;;;;;;;;;;;;;;7.57;59.60;98879.13;4305282;33;20016;-88
2022/02/07 12:05:31;;;;;;;;;;;;;;;7.52;59.59;98852.50;4318524;33;20336;-88
2022/02/07 12:08:01;;;;;;;;;;;;;;;7.41;59.59;98882.25;4305592;33;19984;-88
2022/02/07 12:10:28;;;;;;;;;;;;;;;7.46;59.59;98878.63;4304658;33;20004;-88
2022/02/07 12:12:57;;;;;;;;;;;;;;;7.48;59.60;98876.81;4318684;33;20381;-87
2022/02/07 12:15:34;;;;;;;;;;;;;;;7.60;59.60;98878.16;4300091;33;19998;-87
2022/02/07 12:18:14;;;;;;;;;;;;;;;7.62;59.61;98900.53;4304046;33;20659;-89
2022/02/07 12:20:43;;;;;;;;;;;;;;;7.78;59.61;98906.00;4290741;33;20059;-87
2022/02/07 12:23:10;;;;;;;;;;;;;;;8.19;59.63;98903.72;4290574;33;20014;-87
2022/02/07 12:25:42;;;;;;;;;;;;;;;7.98;59.62;98908.78;4303964;33;19985;-87
2022/02/07 12:28:12;;;;;;;;;;;;;;;8.04;59.62;98907.69;4290326;33;20365;-86
2022/02/07 12:33:12;;;;;;;;;;;;;;;8.10;59.63;98924.81;4303847;33;19992;-86
2022/02/07 12:35:37;;;;;;;;;;;;;;;8.24;59.64;98933.78;4290374;33;20282;-86
2022/02/07 12:38:02;;;;;;;;;;;;;;;8.29;59.63;98926.69;4290416;33;20024;-85
2022/02/07 12:40:28;;;;;;;;;;;;;;;8.19;59.63;98934.84;4302494;33;20031;-88
2022/02/07 12:42:55;;;;;;;;;;;;;;;7.91;59.61;98934.97;4301996;33;23437;-86
2022/02/07 12:45:25;;;;;;;;;;;;;;;7.78;59.61;98941.44;4290590;33;20002;-86
2022/02/07 12:47:51;;;;;;;;;;;;;;;7.55;59.60;98942.19;4303952;33;19985;-86
2022/02/07 12:50:18;;;;;;;;;;;;;;;7.31;59.58;98957.63;4290036;33;20306;-88
2022/02/07 12:52:43;;;;;;;;;;;;;;;7.34;59.59;98959.28;4291017;33;20012;-85
2022/02/07 12:55:09;;;;;;;;;;;;;;;7.65;59.60;98972.09;4290240;33;20106;-84
2022/02/07 12:57:38;;;;;;;;;;;;;;;7.64;59.60;98986.78;4290268;33;19976;-84
2022/02/07 13:00:04;;;;;;;;;;;;;;;7.65;59.60;98972.94;4303638;33;20024;-84
2022/02/07 13:02:29;;;;;;;;;;;;;;;7.65;59.60;98974.69;4303837;33;19984;-84
2022/02/07 13:04:54;;;;;;;;;;;;;;;7.31;59.58;99005.97;4303585;33;20008;-83
2022/02/07 13:07:21;;;;;;;;;;;;;;;7.36;59.59;99006.69;4303720;33;20322;-85
2022/02/07 13:09:52;;;;;;;;;;;;;;;7.43;59.59;99020.28;4309025;33;20065;-88
2022/02/07 13:12:25;;;;;;;;;;;;;;;7.54;59.59;99003.50;4318840;33;19988;-90
2022/02/07 13:14:50;;;;;;;;;;;;;;;7.64;59.60;99020.47;4305698;33;19976;-89
2022/02/07 13:17:18;;;;;;;;;;;;;;;7.47;59.60;99020.13;4305366;33;20015;-88
2022/02/07 13:19:44;;;;;;;;;;;;;;;7.60;59.60;99025.78;4305917;33;20217;-89
2022/02/07 13:22:10;;;;;;;;;;;;;;;7.38;59.59;99033.37;4303903;33;20476;-86
2022/02/07 13:24:35;;;;;;;;;;;;;;;7.59;59.60;99037.91;4317950;33;19980;-86
2022/02/07 13:27:01;;;;;;;;;;;;;;;7.44;59.59;99040.09;4304767;33;20341;-86
2022/02/07 13:29:27;;;;;;;;;;;;;;;7.32;59.58;99052.50;4304623;33;19988;-86
2022/02/07 13:31:59;;;;;;;;;;;;;;;7.22;59.58;99053.69;4304823;33;20011;-85
2022/02/07 13:34:25;;;;;;;;;;;;;;;7.38;59.59;99061.84;4304289;33;20377;-86
2022/02/07 13:36:52;;;;;;;;;;;;;;;7.60;59.60;99087.94;4304617;33;19999;-88
2022/02/07 13:39:18;;;;;;;;;;;;;;;7.54;59.59;99099.31;4304721;33;20014;-88
2022/02/07 13:41:43;;;;;;;;;;;;;;;7.41;59.59;99105.78;4318139;33;20411;-87
2022/02/07 13:44:08;;;;;;;;;;;;;;;7.26;59.58;99114.81;4304289;33;20247;-87
2022/02/07 13:46:34;;;;;;;;;;;;;;;7.05;59.57;99098.16;4292762;33;19988;-86
2022/02/07 13:49:02;;;;;;;;;;;;;;;7.15;59.58;99114.28;4304859;33;19995;-88
2022/02/07 13:51:28;;;;;;;;;;;;;;;7.25;59.59;99125.22;4304795;33;19996;-87
2022/02/07 13:53:54;;;;;;;;;;;;;;;7.16;59.58;99122.91;4304644;33;20011;-88
2022/02/07 13:56:26;;;;;;;;;;;;;;;7.01;59.56;99122.44;4304621;33;20036;-87
2022/02/07 13:58:52;;;;;;;;;;;;;;;7.11;59.58;99124.78;4304820;33;20004;-89
2022/02/07 14:01:23;;;;;;;;;;;;;;;7.18;59.59;99152.19;4304958;33;20045;-92
2022/02/07 14:03:49;;;;;;;;;;;;;;;7.19;59.59;99146.13;4301975;33;19993;-84
2022/02/07 14:06:18;;;;;;;;;;;;;;;7.14;59.57;99153.16;4315023;33;20082;-85
2022/02/07 14:08:50;;;;;;;;;;;;;;;7.28;59.58;99169.13;4317721;33;20002;-85
2022/02/07 14:11:21;;;;;;;;;;;;;;;7.43;59.59;99168.72;4317820;33;20427;-85
2022/02/07 14:13:46;;;;;;;;;;;;;;;7.47;59.60;99162.56;4304876;33;20051;-84
2022/02/07 14:16:11;;;;;;;;;;;;;;;7.23;59.58;99187.41;4317923;33;19968;-84
2022/02/07 14:18:38;;;;;;;;;;;;;;;7.17;59.57;99181.53;4304456;33;19976;-83
2022/02/07 14:21:10;;;;;;;;;;;;;;;7.05;59.57;99193.91;4317921;33;19996;-86
2022/02/07 14:23:39;;;;;;;;;;;;;;;7.15;59.57;99199.72;4305206;33;19991;-84
2022/02/07 14:26:04;;;;;;;;;;;;;;;7.31;59.60;99203.56;4316350;33;19984;-82
2022/02/07 14:28:30;;;;;;;;;;;;;;;7.20;59.58;99194.41;4317830;33;19995;-82
2022/02/07 14:30:55;;;;;;;;;;;;;;;6.92;59.56;99217.56;4317771;33;20287;-83
2022/02/07 14:33:20;;;;;;;;;;;;;;;6.94;59.56;99208.03;4317202;33;19976;-83
2022/02/07 14:35:46;;;;;;;;;;;;;;;7.19;59.59;99209.09;4317820;33;19976;-87
2022/02/07 14:38:11;;;;;;;;;;;;;;;7.17;59.57;99225.53;4292036;33;20028;-85
2022/02/07 14:40:37;;;;;;;;;;;;;;;7.08;59.57;99229.19;4317188;33;19983;-85
2022/02/07 14:43:04;;;;;;;;;;;;;;;7.20;59.58;99204.75;4304394;33;20082;-84
2022/02/07 14:45:43;;;;;;;;;;;;;;;7.18;59.59;99222.91;4304388;33;20056;-83
2022/02/07 14:48:08;;;;;;;;;;;;;;;6.95;59.57;99231.28;4317379;33;19984;-82
2022/02/07 14:50:34;;;;;;;;;;;;;;;6.79;59.55;99227.38;4304096;33;20015;-83
2022/02/07 14:52:59;;;;;;;;;;;;;;;6.83;59.56;99247.09;4317405;33;20060;-84
2022/02/07 14:55:25;;;;;;;;;;;;;;;6.86;59.56;99228.94;4317518;33;20552;-83
2022/02/07 14:57:50;;;;;;;;;;;;;;;6.75;59.56;99260.22;4317370;33;20433;-83
2022/02/07 15:00:16;;;;;;;;;;;;;;;6.75;59.56;99259.38;4317047;33;20004;-82
2022/02/07 15:02:42;;;;;;;;;;;;;;;6.82;59.56;99271.25;4317202;33;19986;-82
2022/02/07 15:05:07;;;;;;;;;;;;;;;6.57;59.54;99265.84;4317181;33;20355;-84
2022/02/07 15:07:32;;;;;;;;;;;;;;;6.63;59.54;99263.13;4317283;33;20050;-83
2022/02/07 15:09:58;;;;;;;;;;;;;;;6.57;59.54;99255.50;4317211;33;20024;-82
2022/02/07 15:12:23;;;;;;;;;;;;;;;6.56;59.54;99265.88;4303536;33;20003;-83
2022/02/07 15:14:51;;;;;;;;;;;;;;;6.55;59.55;99259.00;4314718;33;19995;-83
2022/02/07 15:17:17;;;;;;;;;;;;;;;6.53;59.54;99253.00;4304258;33;20044;-83
2022/02/07 15:19:42;;;;;;;;;;;;;;;6.63;59.55;99260.53;4304084;33;20014;-83
2022/02/07 15:22:08;;;;;;;;;;;;;;;6.73;59.56;99243.06;4316870;33;20003;-83
2022/02/07 15:24:33;;;;;;;;;;;;;;;6.70;59.55;99264.66;4316782;33;20002;-83
2022/02/07 15:26:59;;;;;;;;;;;;;;;6.73;59.56;99269.75;4303712;33;19988;-82
2022/02/07 15:29:24;;;;;;;;;;;;;;;6.66;59.55;99288.06;4303243;33;20036;-83
2022/02/07 15:31:58;;;;;;;;;;;;;;;6.59;59.55;99292.50;4302136;33;22255;-85